sensor_id;sensor_type;location;lat;lon;timestamp;temperature;humidity
8643;DHT22;4359;49.358;11.256;2022-10-19T00:00:27;12.80;99.90
8643;DHT22;4359;49.358;11.256;2022-10-19T00:02:53;12.60;99.90
8643;DHT22;4359;49.358;11.256;2022-10-19T00:05:19;12.50;99.90
8643;DHT22;4359;49.358;11.256;2022-10-19T00:07:44;12.50;99.90
8643;DHT22;4359;49.358;11.256;2022-10-19T00:10:10;12.50;99.90
8643;DHT22;4359;49.358;11.256;2022-10-19T00:12:36;12.60;99.90
8643;DHT22;4359;49.358;11.256;2022-10-19T00:15:03;12.60;99.90
8643;DHT22;4359;49.358;11.256;2022-10-19T00:17:29;12.70;99.90
8643;DHT22;4359;49.358;11.256;2022-10-19T00:19:55;12.70;99.90
8643;DHT22;4359;49.358;11.256;2022-10-19T00:22:20;12.70;99.90
8643;DHT22;4359;49.358;11.256;2022-10-19T00:24:46;12.80;99.90
8643;DHT22;4359;49.358;11.256;2022-10-19T00:27:12;12.70;99.90
8643;DHT22;4359;49.358;11.256;2022-10-19T00:29:37;12.70;99.90
8643;DHT22;4359;49.358;11.256;2022-10-19T00:32:03;12.70;99.90
8643;DHT22;4359;49.358;11.256;2022-10-19T00:34:29;12.80;99.90
8643;DHT22;4359;49.358;11.256;2022-10-19T00:36:55;12.80;99.90
8643;DHT22;4359;49.358;11.256;2022-10-19T00:39:20;12.90;99.90
8643;DHT22;4359;49.358;11.256;2022-10-19T00:41:47;12.90;99.90
8643;DHT22;4359;49.358;11.256;2022-10-19T00:46:43;12.80;99.90
8643;DHT22;4359;49.358;11.256;2022-10-19T00:49:13;12.80;99.90
8643;DHT22;4359;49.358;11.256;2022-10-19T00:51:43;12.80;99.90
8643;DHT22;4359;49.358;11.256;2022-10-19T00:54:10;12.70;99.90
8643;DHT22;4359;49.358;11.256;2022-10-19T00:56:39;12.60;99.90
8643;DHT22;4359;49.358;11.256;2022-10-19T00:59:06;12.60;99.90
8643;DHT22;4359;49.358;11.256;2022-10-19T01:01:33;12.40;99.90
8643;DHT22;4359;49.358;11.256;2022-10-19T01:04:00;12.40;99.90
8643;DHT22;4359;49.358;11.256;2022-10-19T01:06:26;12.30;99.90
8643;DHT22;4359;49.358;11.256;2022-10-19T01:08:52;12.30;99.90
8643;DHT22;4359;49.358;11.256;2022-10-19T01:14:15;12.30;99.90
8643;DHT22;4359;49.358;11.256;2022-10-19T01:17:16;12.30;99.90
8643;DHT22;4359;49.358;11.256;2022-10-19T01:19:59;12.30;99.90
8643;DHT22;4359;49.358;11.256;2022-10-19T01:22:40;12.20;99.90
8643;DHT22;4359;49.358;11.256;2022-10-19T01:39:13;12.10;99.90
8643;DHT22;4359;49.358;11.256;2022-10-19T01:44:18;12.10;99.90
8643;DHT22;4359;49.358;11.256;2022-10-19T01:46:57;12.00;99.90
8643;DHT22;4359;49.358;11.256;2022-10-19T01:49:39;12.00;99.90
8643;DHT22;4359;49.358;11.256;2022-10-19T01:52:08;12.00;99.90
8643;DHT22;4359;49.358;11.256;2022-10-19T01:54:39;11.90;99.90
8643;DHT22;4359;49.358;11.256;2022-10-19T01:57:09;11.90;99.90
8643;DHT22;4359;49.358;11.256;2022-10-19T01:59:36;11.80;99.90
8643;DHT22;4359;49.358;11.256;2022-10-19T02:02:04;11.80;99.90
8643;DHT22;4359;49.358;11.256;2022-10-19T02:04:32;11.80;99.90
8643;DHT22;4359;49.358;11.256;2022-10-19T02:06:58;11.80;99.90
8643;DHT22;4359;49.358;11.256;2022-10-19T02:09:24;11.70;99.90
8643;DHT22;4359;49.358;11.256;2022-10-19T02:11:53;11.70;99.90
8643;DHT22;4359;49.358;11.256;2022-10-19T02:14:24;11.70;99.90
8643;DHT22;4359;49.358;11.256;2022-10-19T02:17:00;11.70;99.90
8643;DHT22;4359;49.358;11.256;2022-10-19T02:19:27;11.70;99.90
8643;DHT22;4359;49.358;11.256;2022-10-19T02:21:53;11.70;99.90
8643;DHT22;4359;49.358;11.256;2022-10-19T02:24:19;11.70;99.90
8643;DHT22;4359;49.358;11.256;2022-10-19T02:26:44;11.70;99.90
8643;DHT22;4359;49.358;11.256;2022-10-19T02:29:11;11.70;99.90
8643;DHT22;4359;49.358;11.256;2022-10-19T02:31:38;11.60;99.90
8643;DHT22;4359;49.358;11.256;2022-10-19T02:34:04;11.60;99.90
8643;DHT22;4359;49.358;11.256;2022-10-19T02:36:30;11.60;99.90
8643;DHT22;4359;49.358;11.256;2022-10-19T02:38:56;11.50;99.90
8643;DHT22;4359;49.358;11.256;2022-10-19T02:41:39;11.50;99.90
8643;DHT22;4359;49.358;11.256;2022-10-19T02:44:18;11.50;99.90
8643;DHT22;4359;49.358;11.256;2022-10-19T02:46:53;11.40;99.90
8643;DHT22;4359;49.358;11.256;2022-10-19T02:49:20;11.40;99.90
8643;DHT22;4359;49.358;11.256;2022-10-19T02:52:15;11.40;99.90
8643;DHT22;4359;49.358;11.256;2022-10-19T02:54:43;11.40;99.90
8643;DHT22;4359;49.358;11.256;2022-10-19T02:57:20;11.40;99.90
8643;DHT22;4359;49.358;11.256;2022-10-19T02:59:47;11.40;99.90
8643;DHT22;4359;49.358;11.256;2022-10-19T03:02:14;11.40;99.90
8643;DHT22;4359;49.358;11.256;2022-10-19T03:04:40;11.50;99.90
8643;DHT22;4359;49.358;11.256;2022-10-19T03:07:12;11.40;99.90
8643;DHT22;4359;49.358;11.256;2022-10-19T03:09:39;11.40;99.90
8643;DHT22;4359;49.358;11.256;2022-10-19T03:12:05;11.30;99.90
8643;DHT22;4359;49.358;11.256;2022-10-19T03:14:30;11.30;99.90
8643;DHT22;4359;49.358;11.256;2022-10-19T03:16:56;11.30;99.90
8643;DHT22;4359;49.358;11.256;2022-10-19T03:19:22;11.20;99.90
8643;DHT22;4359;49.358;11.256;2022-10-19T03:21:47;11.10;99.90
8643;DHT22;4359;49.358;11.256;2022-10-19T03:24:13;10.90;99.90
8643;DHT22;4359;49.358;11.256;2022-10-19T03:26:38;10.90;99.90
8643;DHT22;4359;49.358;11.256;2022-10-19T03:29:04;10.80;99.90
8643;DHT22;4359;49.358;11.256;2022-10-19T03:31:30;10.80;99.90
8643;DHT22;4359;49.358;11.256;2022-10-19T03:33:55;10.80;99.90
8643;DHT22;4359;49.358;11.256;2022-10-19T03:36:22;10.80;99.90
8643;DHT22;4359;49.358;11.256;2022-10-19T03:38:49;10.90;99.90
8643;DHT22;4359;49.358;11.256;2022-10-19T03:41:16;10.90;99.90
8643;DHT22;4359;49.358;11.256;2022-10-19T03:43:42;10.90;99.90
8643;DHT22;4359;49.358;11.256;2022-10-19T03:46:08;11.00;99.90
8643;DHT22;4359;49.358;11.256;2022-10-19T03:48:34;11.00;99.90
8643;DHT22;4359;49.358;11.256;2022-10-19T03:51:02;11.00;99.90
8643;DHT22;4359;49.358;11.256;2022-10-19T03:53:28;11.00;99.90
8643;DHT22;4359;49.358;11.256;2022-10-19T03:56:06;11.10;99.90
8643;DHT22;4359;49.358;11.256;2022-10-19T03:58:34;11.10;99.90
8643;DHT22;4359;49.358;11.256;2022-10-19T04:01:00;11.10;99.90
8643;DHT22;4359;49.358;11.256;2022-10-19T04:03:26;11.10;99.90
8643;DHT22;4359;49.358;11.256;2022-10-19T04:05:52;11.10;99.90
8643;DHT22;4359;49.358;11.256;2022-10-19T04:08:17;11.10;99.90
8643;DHT22;4359;49.358;11.256;2022-10-19T04:10:43;11.10;99.90
8643;DHT22;4359;49.358;11.256;2022-10-19T04:13:09;11.00;99.90
8643;DHT22;4359;49.358;11.256;2022-10-19T04:15:35;10.90;99.90
8643;DHT22;4359;49.358;11.256;2022-10-19T04:18:01;10.90;99.90
8643;DHT22;4359;49.358;11.256;2022-10-19T04:20:26;10.90;99.90
8643;DHT22;4359;49.358;11.256;2022-10-19T04:22:52;10.80;99.90
8643;DHT22;4359;49.358;11.256;2022-10-19T04:25:18;10.80;99.90
8643;DHT22;4359;49.358;11.256;2022-10-19T04:27:44;10.70;99.90
8643;DHT22;4359;49.358;11.256;2022-10-19T04:30:10;10.70;99.90
8643;DHT22;4359;49.358;11.256;2022-10-19T04:32:35;10.70;99.90
8643;DHT22;4359;49.358;11.256;2022-10-19T04:35:01;10.70;99.90
8643;DHT22;4359;49.358;11.256;2022-10-19T04:37:27;10.70;99.90
8643;DHT22;4359;49.358;11.256;2022-10-19T04:39:52;10.60;99.90
8643;DHT22;4359;49.358;11.256;2022-10-19T04:42:18;10.60;99.90
8643;DHT22;4359;49.358;11.256;2022-10-19T04:44:44;10.60;99.90
8643;DHT22;4359;49.358;11.256;2022-10-19T04:47:09;10.60;99.90
8643;DHT22;4359;49.358;11.256;2022-10-19T04:49:35;10.60;99.90
8643;DHT22;4359;49.358;11.256;2022-10-19T04:52:01;10.50;99.90
8643;DHT22;4359;49.358;11.256;2022-10-19T04:54:26;10.40;99.90
8643;DHT22;4359;49.358;11.256;2022-10-19T04:56:52;10.40;99.90
8643;DHT22;4359;49.358;11.256;2022-10-19T04:59:18;10.40;99.90
8643;DHT22;4359;49.358;11.256;2022-10-19T05:01:44;10.30;99.90
8643;DHT22;4359;49.358;11.256;2022-10-19T05:04:09;10.20;99.90
8643;DHT22;4359;49.358;11.256;2022-10-19T05:06:36;10.20;99.90
8643;DHT22;4359;49.358;11.256;2022-10-19T05:09:02;10.20;99.90
8643;DHT22;4359;49.358;11.256;2022-10-19T05:11:27;10.20;99.90
8643;DHT22;4359;49.358;11.256;2022-10-19T05:13:54;10.20;99.90
8643;DHT22;4359;49.358;11.256;2022-10-19T05:16:21;10.20;99.90
8643;DHT22;4359;49.358;11.256;2022-10-19T05:18:52;10.20;99.90
8643;DHT22;4359;49.358;11.256;2022-10-19T05:21:18;10.10;99.90
8643;DHT22;4359;49.358;11.256;2022-10-19T05:23:45;10.00;99.90
8643;DHT22;4359;49.358;11.256;2022-10-19T05:26:15;9.90;99.90
8643;DHT22;4359;49.358;11.256;2022-10-19T05:28:43;9.90;99.90
8643;DHT22;4359;49.358;11.256;2022-10-19T05:31:19;9.80;99.90
8643;DHT22;4359;49.358;11.256;2022-10-19T05:33:45;9.80;99.90
8643;DHT22;4359;49.358;11.256;2022-10-19T05:36:20;9.70;99.90
8643;DHT22;4359;49.358;11.256;2022-10-19T05:38:48;9.70;99.90
8643;DHT22;4359;49.358;11.256;2022-10-19T05:41:15;9.70;99.90
8643;DHT22;4359;49.358;11.256;2022-10-19T05:43:41;9.60;99.90
8643;DHT22;4359;49.358;11.256;2022-10-19T05:46:10;9.60;99.90
8643;DHT22;4359;49.358;11.256;2022-10-19T05:48:36;9.60;99.90
8643;DHT22;4359;49.358;11.256;2022-10-19T05:51:03;9.60;99.90
8643;DHT22;4359;49.358;11.256;2022-10-19T05:53:30;9.60;99.90
8643;DHT22;4359;49.358;11.256;2022-10-19T05:55:56;9.60;99.90
8643;DHT22;4359;49.358;11.256;2022-10-19T05:58:22;9.70;99.90
8643;DHT22;4359;49.358;11.256;2022-10-19T06:00:55;9.70;99.90
8643;DHT22;4359;49.358;11.256;2022-10-19T06:03:22;9.70;99.90
8643;DHT22;4359;49.358;11.256;2022-10-19T06:05:48;9.70;99.90
8643;DHT22;4359;49.358;11.256;2022-10-19T06:08:15;9.80;99.90
8643;DHT22;4359;49.358;11.256;2022-10-19T06:10:41;9.80;99.90
8643;DHT22;4359;49.358;11.256;2022-10-19T06:13:07;9.90;99.90
8643;DHT22;4359;49.358;11.256;2022-10-19T06:15:33;9.90;99.90
8643;DHT22;4359;49.358;11.256;2022-10-19T06:18:02;9.90;99.90
8643;DHT22;4359;49.358;11.256;2022-10-19T06:20:28;10.00;99.90
8643;DHT22;4359;49.358;11.256;2022-10-19T06:22:54;9.90;99.90
8643;DHT22;4359;49.358;11.256;2022-10-19T06:25:20;10.00;99.90
8643;DHT22;4359;49.358;11.256;2022-10-19T06:27:46;10.10;99.90
8643;DHT22;4359;49.358;11.256;2022-10-19T06:30:12;10.10;99.90
8643;DHT22;4359;49.358;11.256;2022-10-19T06:32:37;10.10;99.90
8643;DHT22;4359;49.358;11.256;2022-10-19T06:35:03;10.10;99.90
8643;DHT22;4359;49.358;11.256;2022-10-19T06:37:29;10.10;99.90
8643;DHT22;4359;49.358;11.256;2022-10-19T06:39:55;10.20;99.90
8643;DHT22;4359;49.358;11.256;2022-10-19T06:42:20;10.20;99.90
8643;DHT22;4359;49.358;11.256;2022-10-19T06:44:46;10.30;99.90
8643;DHT22;4359;49.358;11.256;2022-10-19T06:47:11;10.20;99.90
8643;DHT22;4359;49.358;11.256;2022-10-19T06:49:37;10.20;99.90
8643;DHT22;4359;49.358;11.256;2022-10-19T06:52:03;10.30;99.90
8643;DHT22;4359;49.358;11.256;2022-10-19T06:54:30;10.40;99.90
8643;DHT22;4359;49.358;11.256;2022-10-19T06:56:55;10.50;99.90
8643;DHT22;4359;49.358;11.256;2022-10-19T06:59:21;10.40;99.90
8643;DHT22;4359;49.358;11.256;2022-10-19T07:01:47;10.20;99.90
8643;DHT22;4359;49.358;11.256;2022-10-19T07:04:12;10.10;99.90
8643;DHT22;4359;49.358;11.256;2022-10-19T07:06:38;10.10;99.90
8643;DHT22;4359;49.358;11.256;2022-10-19T07:09:04;10.20;99.90
8643;DHT22;4359;49.358;11.256;2022-10-19T07:11:29;10.30;99.90
8643;DHT22;4359;49.358;11.256;2022-10-19T07:13:55;10.20;99.90
8643;DHT22;4359;49.358;11.256;2022-10-19T07:16:21;10.30;99.90
8643;DHT22;4359;49.358;11.256;2022-10-19T07:18:47;10.40;99.90
8643;DHT22;4359;49.358;11.256;2022-10-19T07:21:15;10.50;99.90
8643;DHT22;4359;49.358;11.256;2022-10-19T07:23:42;10.60;99.90
8643;DHT22;4359;49.358;11.256;2022-10-19T07:26:17;10.70;99.90
8643;DHT22;4359;49.358;11.256;2022-10-19T07:28:45;10.80;99.90
8643;DHT22;4359;49.358;11.256;2022-10-19T07:31:13;10.60;99.90
8643;DHT22;4359;49.358;11.256;2022-10-19T07:33:42;10.80;99.90
8643;DHT22;4359;49.358;11.256;2022-10-19T07:36:09;10.90;99.90
8643;DHT22;4359;49.358;11.256;2022-10-19T07:38:36;10.90;99.90
8643;DHT22;4359;49.358;11.256;2022-10-19T07:41:11;11.10;99.90
8643;DHT22;4359;49.358;11.256;2022-10-19T07:43:38;11.30;99.90
8643;DHT22;4359;49.358;11.256;2022-10-19T07:46:06;11.50;99.90
8643;DHT22;4359;49.358;11.256;2022-10-19T07:48:32;11.70;99.90
8643;DHT22;4359;49.358;11.256;2022-10-19T07:51:00;11.80;99.90
8643;DHT22;4359;49.358;11.256;2022-10-19T07:53:26;11.80;99.90
8643;DHT22;4359;49.358;11.256;2022-10-19T07:55:52;11.50;99.90
8643;DHT22;4359;49.358;11.256;2022-10-19T07:58:17;11.40;99.90
8643;DHT22;4359;49.358;11.256;2022-10-19T08:00:43;11.20;99.90
8643;DHT22;4359;49.358;11.256;2022-10-19T08:03:09;11.20;99.90
8643;DHT22;4359;49.358;11.256;2022-10-19T08:05:35;11.30;99.90
8643;DHT22;4359;49.358;11.256;2022-10-19T08:08:01;11.30;99.90
8643;DHT22;4359;49.358;11.256;2022-10-19T08:10:26;11.50;99.90
8643;DHT22;4359;49.358;11.256;2022-10-19T08:12:52;11.50;99.90
8643;DHT22;4359;49.358;11.256;2022-10-19T08:15:18;11.50;99.90
8643;DHT22;4359;49.358;11.256;2022-10-19T08:17:43;11.80;99.90
8643;DHT22;4359;49.358;11.256;2022-10-19T08:20:09;12.10;99.90
8643;DHT22;4359;49.358;11.256;2022-10-19T08:22:35;12.30;99.90
8643;DHT22;4359;49.358;11.256;2022-10-19T08:25:01;12.30;99.90
8643;DHT22;4359;49.358;11.256;2022-10-19T08:27:26;12.50;99.90
8643;DHT22;4359;49.358;11.256;2022-10-19T08:29:53;12.70;99.90
8643;DHT22;4359;49.358;11.256;2022-10-19T08:32:19;13.00;99.90
8643;DHT22;4359;49.358;11.256;2022-10-19T08:34:45;13.10;99.90
8643;DHT22;4359;49.358;11.256;2022-10-19T08:37:10;13.20;99.90
8643;DHT22;4359;49.358;11.256;2022-10-19T08:39:36;13.00;99.90
8643;DHT22;4359;49.358;11.256;2022-10-19T08:42:05;12.80;99.90
8643;DHT22;4359;49.358;11.256;2022-10-19T08:49:46;13.10;99.90
8643;DHT22;4359;49.358;11.256;2022-10-19T08:52:24;13.40;99.90
8643;DHT22;4359;49.358;11.256;2022-10-19T08:54:55;13.20;99.90
8643;DHT22;4359;49.358;11.256;2022-10-19T09:07:51;12.70;99.90
8643;DHT22;4359;49.358;11.256;2022-10-19T09:10:31;12.70;99.90
8643;DHT22;4359;49.358;11.256;2022-10-19T09:13:01;12.70;99.90
8643;DHT22;4359;49.358;11.256;2022-10-19T09:15:39;12.90;99.90
8643;DHT22;4359;49.358;11.256;2022-10-19T09:18:17;13.10;99.90
8643;DHT22;4359;49.358;11.256;2022-10-19T09:20:47;13.10;99.90
8643;DHT22;4359;49.358;11.256;2022-10-19T09:23:37;13.10;99.90
8643;DHT22;4359;49.358;11.256;2022-10-19T09:26:09;13.20;99.90
8643;DHT22;4359;49.358;11.256;2022-10-19T09:31:09;13.00;99.90
8643;DHT22;4359;49.358;11.256;2022-10-19T09:33:38;12.90;99.90
8643;DHT22;4359;49.358;11.256;2022-10-19T09:36:05;12.90;99.90
8643;DHT22;4359;49.358;11.256;2022-10-19T09:38:32;13.00;99.90
8643;DHT22;4359;49.358;11.256;2022-10-19T09:41:12;13.10;99.90
8643;DHT22;4359;49.358;11.256;2022-10-19T09:43:43;13.30;99.90
8643;DHT22;4359;49.358;11.256;2022-10-19T09:46:29;13.40;99.90
8643;DHT22;4359;49.358;11.256;2022-10-19T09:48:59;13.30;99.90
8643;DHT22;4359;49.358;11.256;2022-10-19T09:51:25;13.30;99.90
8643;DHT22;4359;49.358;11.256;2022-10-19T09:54:03;13.30;99.90
8643;DHT22;4359;49.358;11.256;2022-10-19T09:56:28;13.40;99.90
8643;DHT22;4359;49.358;11.256;2022-10-19T09:58:56;13.30;99.90
8643;DHT22;4359;49.358;11.256;2022-10-19T10:01:33;13.50;99.90
8643;DHT22;4359;49.358;11.256;2022-10-19T10:04:05;13.80;99.90
8643;DHT22;4359;49.358;11.256;2022-10-19T10:06:32;14.00;99.90
8643;DHT22;4359;49.358;11.256;2022-10-19T10:08:58;14.00;99.90
8643;DHT22;4359;49.358;11.256;2022-10-19T10:11:27;13.90;99.90
8643;DHT22;4359;49.358;11.256;2022-10-19T10:13:55;13.90;99.90
8643;DHT22;4359;49.358;11.256;2022-10-19T10:16:24;13.90;99.90
8643;DHT22;4359;49.358;11.256;2022-10-19T10:18:59;14.00;99.90
8643;DHT22;4359;49.358;11.256;2022-10-19T10:21:28;14.00;99.90
8643;DHT22;4359;49.358;11.256;2022-10-19T10:26:49;14.10;99.90
8643;DHT22;4359;49.358;11.256;2022-10-19T10:31:59;14.00;99.90
8643;DHT22;4359;49.358;11.256;2022-10-19T10:34:54;14.10;99.90
8643;DHT22;4359;49.358;11.256;2022-10-19T10:37:43;14.20;99.90
8643;DHT22;4359;49.358;11.256;2022-10-19T10:40:27;14.20;99.90
8643;DHT22;4359;49.358;11.256;2022-10-19T10:42:56;14.40;99.90
8643;DHT22;4359;49.358;11.256;2022-10-19T10:45:29;14.40;99.90
8643;DHT22;4359;49.358;11.256;2022-10-19T10:47:56;14.30;99.90
8643;DHT22;4359;49.358;11.256;2022-10-19T10:50:30;14.30;99.90
8643;DHT22;4359;49.358;11.256;2022-10-19T10:53:00;14.40;99.90
8643;DHT22;4359;49.358;11.256;2022-10-19T10:55:26;14.40;99.90
8643;DHT22;4359;49.358;11.256;2022-10-19T11:00:37;14.40;99.90
8643;DHT22;4359;49.358;11.256;2022-10-19T11:03:12;14.60;99.90
8643;DHT22;4359;49.358;11.256;2022-10-19T11:05:48;14.90;99.90
8643;DHT22;4359;49.358;11.256;2022-10-19T11:08:31;15.10;99.90
8643;DHT22;4359;49.358;11.256;2022-10-19T11:16:44;14.80;99.90
8643;DHT22;4359;49.358;11.256;2022-10-19T11:22:07;14.50;99.90
8643;DHT22;4359;49.358;11.256;2022-10-19T11:35:53;15.30;99.90
8643;DHT22;4359;49.358;11.256;2022-10-19T11:38:48;15.90;99.90
8643;DHT22;4359;49.358;11.256;2022-10-19T11:47:03;17.00;99.90
8643;DHT22;4359;49.358;11.256;2022-10-19T11:49:49;17.40;99.90
8643;DHT22;4359;49.358;11.256;2022-10-19T11:52:49;17.10;99.90
8643;DHT22;4359;49.358;11.256;2022-10-19T11:55:56;16.40;99.90
8643;DHT22;4359;49.358;11.256;2022-10-19T12:14:50;15.00;99.90
8643;DHT22;4359;49.358;11.256;2022-10-19T12:17:31;15.10;99.90
8643;DHT22;4359;49.358;11.256;2022-10-19T12:20:02;15.60;99.90
8643;DHT22;4359;49.358;11.256;2022-10-19T12:22:29;16.30;99.90
8643;DHT22;4359;49.358;11.256;2022-10-19T12:24:59;16.80;99.90
8643;DHT22;4359;49.358;11.256;2022-10-19T12:27:36;17.10;99.90
8643;DHT22;4359;49.358;11.256;2022-10-19T12:30:14;17.10;99.90
8643;DHT22;4359;49.358;11.256;2022-10-19T12:32:50;17.30;99.90
8643;DHT22;4359;49.358;11.256;2022-10-19T12:35:26;17.20;99.90
8643;DHT22;4359;49.358;11.256;2022-10-19T12:38:32;17.30;99.90
8643;DHT22;4359;49.358;11.256;2022-10-19T12:41:09;17.40;99.90
8643;DHT22;4359;49.358;11.256;2022-10-19T12:44:26;17.30;99.90
8643;DHT22;4359;49.358;11.256;2022-10-19T12:46:46;17.40;99.90
8643;DHT22;4359;49.358;11.256;2022-10-19T12:51:56;17.60;99.90
8643;DHT22;4359;49.358;11.256;2022-10-19T12:54:33;17.50;99.90
8643;DHT22;4359;49.358;11.256;2022-10-19T12:57:00;17.60;99.90
8643;DHT22;4359;49.358;11.256;2022-10-19T12:59:30;17.80;99.90
8643;DHT22;4359;49.358;11.256;2022-10-19T13:01:57;18.30;99.90
8643;DHT22;4359;49.358;11.256;2022-10-19T13:04:29;18.50;99.90
8643;DHT22;4359;49.358;11.256;2022-10-19T13:09:37;17.70;99.90
8643;DHT22;4359;49.358;11.256;2022-10-19T13:14:50;16.50;99.90
8643;DHT22;4359;49.358;11.256;2022-10-19T13:22:39;16.40;99.90
8643;DHT22;4359;49.358;11.256;2022-10-19T13:25:19;16.60;99.90
8643;DHT22;4359;49.358;11.256;2022-10-19T13:27:47;17.00;99.90
8643;DHT22;4359;49.358;11.256;2022-10-19T13:41:23;17.70;99.90
8643;DHT22;4359;49.358;11.256;2022-10-19T13:44:03;17.80;99.90
8643;DHT22;4359;49.358;11.256;2022-10-19T13:49:22;17.70;99.90
8643;DHT22;4359;49.358;11.256;2022-10-19T13:52:12;17.80;99.90
8643;DHT22;4359;49.358;11.256;2022-10-19T14:10:40;17.20;99.90
8643;DHT22;4359;49.358;11.256;2022-10-19T14:13:12;17.10;99.90
8643;DHT22;4359;49.358;11.256;2022-10-19T14:15:38;16.90;99.90
8643;DHT22;4359;49.358;11.256;2022-10-19T14:18:22;16.80;99.90
8643;DHT22;4359;49.358;11.256;2022-10-19T14:20:56;16.60;99.90
8643;DHT22;4359;49.358;11.256;2022-10-19T14:23:36;16.40;99.90
8643;DHT22;4359;49.358;11.256;2022-10-19T14:26:10;16.20;99.90
8643;DHT22;4359;49.358;11.256;2022-10-19T14:28:36;16.10;99.90
8643;DHT22;4359;49.358;11.256;2022-10-19T14:31:03;16.00;99.90
8643;DHT22;4359;49.358;11.256;2022-10-19T14:33:33;15.80;99.90
8643;DHT22;4359;49.358;11.256;2022-10-19T14:35:59;15.60;99.90
8643;DHT22;4359;49.358;11.256;2022-10-19T14:38:40;15.40;99.90
8643;DHT22;4359;49.358;11.256;2022-10-19T14:41:28;15.40;99.90
8643;DHT22;4359;49.358;11.256;2022-10-19T14:44:03;15.40;99.90
8643;DHT22;4359;49.358;11.256;2022-10-19T14:46:47;15.30;99.90
8643;DHT22;4359;49.358;11.256;2022-10-19T14:49:13;15.20;99.90
8643;DHT22;4359;49.358;11.256;2022-10-19T14:51:43;15.20;99.90
8643;DHT22;4359;49.358;11.256;2022-10-19T14:54:23;15.20;99.90
8643;DHT22;4359;49.358;11.256;2022-10-19T14:57:11;15.20;99.90
8643;DHT22;4359;49.358;11.256;2022-10-19T14:59:43;15.20;99.90
8643;DHT22;4359;49.358;11.256;2022-10-19T15:02:26;15.10;99.90
8643;DHT22;4359;49.358;11.256;2022-10-19T15:04:54;15.10;99.90
8643;DHT22;4359;49.358;11.256;2022-10-19T15:10:00;15.10;99.90
8643;DHT22;4359;49.358;11.256;2022-10-19T15:12:32;15.00;99.90
8643;DHT22;4359;49.358;11.256;2022-10-19T15:14:59;15.00;99.90
8643;DHT22;4359;49.358;11.256;2022-10-19T15:17:27;14.90;99.90
8643;DHT22;4359;49.358;11.256;2022-10-19T15:19:55;14.90;99.90
8643;DHT22;4359;49.358;11.256;2022-10-19T15:22:37;14.90;99.90
8643;DHT22;4359;49.358;11.256;2022-10-19T15:27:39;14.70;99.90
8643;DHT22;4359;49.358;11.256;2022-10-19T15:32:46;14.50;99.90
8643;DHT22;4359;49.358;11.256;2022-10-19T15:35:33;14.40;99.90
8643;DHT22;4359;49.358;11.256;2022-10-19T15:38:06;14.30;99.90
8643;DHT22;4359;49.358;11.256;2022-10-19T15:40:38;14.30;99.90
8643;DHT22;4359;49.358;11.256;2022-10-19T15:53:51;13.60;99.90
8643;DHT22;4359;49.358;11.256;2022-10-19T15:56:18;13.50;99.90
8643;DHT22;4359;49.358;11.256;2022-10-19T15:58:47;13.40;99.90
8643;DHT22;4359;49.358;11.256;2022-10-19T16:01:16;13.30;99.90
8643;DHT22;4359;49.358;11.256;2022-10-19T16:03:42;13.20;99.90
8643;DHT22;4359;49.358;11.256;2022-10-19T16:06:08;13.10;99.90
8643;DHT22;4359;49.358;11.256;2022-10-19T16:08:34;13.00;99.90
8643;DHT22;4359;49.358;11.256;2022-10-19T16:10:59;12.90;99.90
8643;DHT22;4359;49.358;11.256;2022-10-19T16:13:25;12.80;99.90
8643;DHT22;4359;49.358;11.256;2022-10-19T16:15:53;12.70;99.90
8643;DHT22;4359;49.358;11.256;2022-10-19T16:18:23;12.60;99.90
8643;DHT22;4359;49.358;11.256;2022-10-19T16:20:51;12.40;99.90
8643;DHT22;4359;49.358;11.256;2022-10-19T16:23:17;12.20;99.90
8643;DHT22;4359;49.358;11.256;2022-10-19T16:25:43;12.10;99.90
8643;DHT22;4359;49.358;11.256;2022-10-19T16:28:08;11.90;99.90
8643;DHT22;4359;49.358;11.256;2022-10-19T16:30:34;11.90;99.90
8643;DHT22;4359;49.358;11.256;2022-10-19T16:32:59;11.80;99.90
8643;DHT22;4359;49.358;11.256;2022-10-19T16:35:25;11.70;99.90
8643;DHT22;4359;49.358;11.256;2022-10-19T16:37:51;11.60;99.90
8643;DHT22;4359;49.358;11.256;2022-10-19T16:40:16;11.60;99.90
8643;DHT22;4359;49.358;11.256;2022-10-19T16:42:42;11.50;99.90
8643;DHT22;4359;49.358;11.256;2022-10-19T16:45:08;11.30;99.90
8643;DHT22;4359;49.358;11.256;2022-10-19T16:47:34;11.20;99.90
8643;DHT22;4359;49.358;11.256;2022-10-19T16:50:00;11.00;99.90
8643;DHT22;4359;49.358;11.256;2022-10-19T16:52:27;10.80;99.90
8643;DHT22;4359;49.358;11.256;2022-10-19T16:54:53;10.50;99.90
8643;DHT22;4359;49.358;11.256;2022-10-19T16:57:19;10.40;99.90
8643;DHT22;4359;49.358;11.256;2022-10-19T16:59:46;10.30;99.90
8643;DHT22;4359;49.358;11.256;2022-10-19T17:02:13;10.10;99.90
8643;DHT22;4359;49.358;11.256;2022-10-19T17:04:39;10.00;99.90
8643;DHT22;4359;49.358;11.256;2022-10-19T17:07:05;9.90;99.90
8643;DHT22;4359;49.358;11.256;2022-10-19T17:09:30;9.70;99.90
8643;DHT22;4359;49.358;11.256;2022-10-19T17:11:56;9.60;99.90
8643;DHT22;4359;49.358;11.256;2022-10-19T17:14:22;9.50;99.90
8643;DHT22;4359;49.358;11.256;2022-10-19T17:16:47;9.50;99.90
8643;DHT22;4359;49.358;11.256;2022-10-19T17:19:13;9.40;99.90
8643;DHT22;4359;49.358;11.256;2022-10-19T17:21:38;9.40;99.90
8643;DHT22;4359;49.358;11.256;2022-10-19T17:24:11;9.50;99.90
8643;DHT22;4359;49.358;11.256;2022-10-19T17:26:38;9.60;99.90
8643;DHT22;4359;49.358;11.256;2022-10-19T17:29:05;9.70;99.90
8643;DHT22;4359;49.358;11.256;2022-10-19T17:31:31;9.70;99.90
8643;DHT22;4359;49.358;11.256;2022-10-19T17:33:56;9.60;99.90
8643;DHT22;4359;49.358;11.256;2022-10-19T17:36:24;9.60;99.90
8643;DHT22;4359;49.358;11.256;2022-10-19T17:38:56;9.50;99.90
8643;DHT22;4359;49.358;11.256;2022-10-19T17:41:23;9.50;99.90
8643;DHT22;4359;49.358;11.256;2022-10-19T17:43:49;9.40;99.90
8643;DHT22;4359;49.358;11.256;2022-10-19T17:46:21;9.40;99.90
8643;DHT22;4359;49.358;11.256;2022-10-19T17:48:47;9.30;99.90
8643;DHT22;4359;49.358;11.256;2022-10-19T17:51:16;9.20;99.90
8643;DHT22;4359;49.358;11.256;2022-10-19T17:53:43;9.20;99.90
8643;DHT22;4359;49.358;11.256;2022-10-19T17:56:11;9.10;99.90
8643;DHT22;4359;49.358;11.256;2022-10-19T17:58:37;9.10;99.90
8643;DHT22;4359;49.358;11.256;2022-10-19T18:01:04;9.10;99.90
8643;DHT22;4359;49.358;11.256;2022-10-19T18:03:32;9.10;99.90
8643;DHT22;4359;49.358;11.256;2022-10-19T18:06:00;9.10;99.90
8643;DHT22;4359;49.358;11.256;2022-10-19T18:08:29;9.10;99.90
8643;DHT22;4359;49.358;11.256;2022-10-19T18:10:59;9.00;99.90
8643;DHT22;4359;49.358;11.256;2022-10-19T18:13:26;8.90;99.90
8643;DHT22;4359;49.358;11.256;2022-10-19T18:15:52;8.80;99.90
8643;DHT22;4359;49.358;11.256;2022-10-19T18:18:17;8.70;99.90
8643;DHT22;4359;49.358;11.256;2022-10-19T18:20:44;8.60;99.90
8643;DHT22;4359;49.358;11.256;2022-10-19T18:23:10;8.50;99.90
8643;DHT22;4359;49.358;11.256;2022-10-19T18:25:37;8.40;99.90
8643;DHT22;4359;49.358;11.256;2022-10-19T18:28:02;8.40;99.90
8643;DHT22;4359;49.358;11.256;2022-10-19T18:30:33;8.30;99.90
8643;DHT22;4359;49.358;11.256;2022-10-19T18:32:59;8.20;99.90